3 Phase Electrical Motor Import to India

Connect2India provides real time data for 3 Phase Electrical Motor import, historical 3 Phase Electrical Motor import analysis, current demand in overseas countries and import price of 3 Phase Electrical Motor.

3 Phase Electrical Motor

3 Phase Electrical Motor import data

Date HS Code Product Description Origin Port Destination Port Quantity Value (INR in Million) Unit Per Unit (INR)
2016-09-21 85015290 X_BN 132MA 6 , KW4, PHASE-3 - (ELECTRIC MOTOR) VIETNAM, DEMOCRATIC REP. OF Chennai Sea 100 3.0138 UNT 30137.0
2016-09-21 85015290 IEC BN MOTOR 100LB 4 ,KW3 , PHASE-3 - (ELECTRIC MOTOR) VIETNAM, DEMOCRATIC REP. OF Chennai Sea 24 0.3961 UNT 16503.0
2016-09-22 85015290 ELECTRIC MOTOR, HKDS0202 5HP 440 VOLTS 50HZ 3 PHASE CHINA Chennai Sea 2 0.0152 UNT 7611.0
2016-09-22 85015290 IEC BN MOTOR 100LB 4 ,KW3 ,PHASE 3 - (ELECTRIC MOTOR) VIETNAM, DEMOCRATIC REP. OF Chennai Sea 172 2.8307 UNT 16457.0
2016-09-23 85014090 ELECTRIC MOTOR,3 H.P. SINGLE PHASE (GT-EM-3HP) CHINA Nhava Sheva Sea 50 0.0924 PCS 1847.0
2016-09-23 85014090 ELECTRIC MOTOR,3 H.P. THREE PHASE (GT-EM-3HPTP) CHINA Nhava Sheva Sea 50 0.0855 PCS 1710.0
2016-09-23 85015190 "M" COMPACT MOTOR 05C 4 , KW 0.25, PHASE- 3 (ELECTRIC MOTOR) VIETNAM, DEMOCRATIC REP. OF Chennai Sea 4 0.0234 UNT 5842.0
2016-09-23 85015190 IEC BN MOTOR 44C 4 ,KW0.09 , PHASE-3 (ELECTRIC MOTOR) VIETNAM, DEMOCRATIC REP. OF Chennai Sea 26 0.0554 UNT 2131.0
2016-09-23 85015190 IEC BN MOTOR 56B 4 ,KW0.09 , PHASE-3 (ELECTRIC MOTOR) VIETNAM, DEMOCRATIC REP. OF Chennai Sea 4 0.0088 UNT 2207.0
2016-09-23 85015190 IEC BN MOTOR 63A 4 , KW 0.12, PHASE- 3 (ELECTRIC MOTOR) VIETNAM, DEMOCRATIC REP. OF Chennai Sea 182 0.7525 UNT 4134.0
2016-09-23 85015190 IEC BN MOTOR 63A 4 ,KW0.12 , PHASE-3 (ELECTRIC MOTOR) VIETNAM, DEMOCRATIC REP. OF Chennai Sea 62 0.1327 UNT 2140.0
2016-09-23 85015190 IEC BN MOTOR 63B 2 ,KW0.25 , PHASE-3 (ELECTRIC MOTOR) VIETNAM, DEMOCRATIC REP. OF Chennai Sea 6 0.0148 UNT 2461.0
2016-09-23 85015190 IEC BN MOTOR 63B 4 ,KW0.18 , PHASE-3 (ELECTRIC MOTOR) VIETNAM, DEMOCRATIC REP. OF Chennai Sea 496 1.1207 UNT 2259.0
2016-09-23 85015190 IEC BN MOTOR 63B 6 ,KW0.12 , PHASE - 3 (ELECTRIC MOTOR) VIETNAM, DEMOCRATIC REP. OF Chennai Sea 40 0.1033 UNT 2583.0
2016-09-23 85015190 IEC BN MOTOR 63B4 , KW 0.18, PHASE- 3 (ELECTRIC MOTOR) VIETNAM, DEMOCRATIC REP. OF Chennai Sea 992 2.2586 UNT 2276.0
2016-09-23 85015190 IEC BN MOTOR 71A 4 ,KW0.25 , PHASE -3 (ELECTRIC MOTOR) VIETNAM, DEMOCRATIC REP. OF Chennai Sea 80 0.203 UNT 2537.0
2016-09-23 85015190 IEC BN MOTOR 71B 2 ,KW0.55 , PHASE - 3 (ELECTRIC MOTOR) VIETNAM, DEMOCRATIC REP. OF Chennai Sea 47 0.1394 UNT 2965.0
2016-09-23 85015190 IEC BN MOTOR 71B 4 , KW 0.37, PHASE- 3 (ELECTRIC MOTOR) VIETNAM, DEMOCRATIC REP. OF Chennai Sea 108 0.6083 UNT 5632.0
2016-09-23 85015190 IEC BN MOTOR 71B 4 ,KW0.37 , PHASE-3 (ELECTRIC MOTOR) VIETNAM, DEMOCRATIC REP. OF Chennai Sea 627 1.7207 UNT 2744.0
2016-09-23 85015190 IEC BN MOTOR 71B 4 ,KW0.37 , PHASE - 3 (ELECTRIC MOTOR) VIETNAM, DEMOCRATIC REP. OF Chennai Sea 6 0.0399 UNT 6649.0
2016-09-23 85015190 IEC BN MOTOR 71B4 , KW 0.37, PHASE- 3 (ELECTRIC MOTOR) VIETNAM, DEMOCRATIC REP. OF Chennai Sea 480 1.2654 UNT 2636.0
2016-09-23 85015190 IEC BN MOTOR 71C 6 ,KW0.37 , PHASE - 3 (ELECTRIC MOTOR) VIETNAM, DEMOCRATIC REP. OF Chennai Sea 4 0.0134 UNT 3348.0
2016-09-23 85015190 IEC BN MOTOR 80A 2 ,KW0.75 , PHASE-3 (ELECTRIC MOTOR) VIETNAM, DEMOCRATIC REP. OF Chennai Sea 24 0.0813 UNT 3387.0
2016-09-23 85015190 IEC BN MOTOR 80A 4 ,KW0.55 , PHASE-3 (ELECTRIC MOTOR) VIETNAM, DEMOCRATIC REP. OF Chennai Sea 100 0.3092 UNT 3091.0
2016-09-23 85015190 IEC BN MOTOR 80A 4 ,KW0.55 , PHASE -3 (ELECTRIC MOTOR) VIETNAM, DEMOCRATIC REP. OF Chennai Sea 81 0.2545 UNT 3141.0
2016-09-23 85015190 IEC BN MOTOR 80B 4 , KW 0.75, PHASE- 3 (ELECTRIC MOTOR) VIETNAM, DEMOCRATIC REP. OF Chennai Sea 16 0.1097 UNT 6854.0
2016-09-23 85015190 IEC BN MOTOR 80B 4 ,KW0.75 , PHASE-3 (ELECTRIC MOTOR) VIETNAM, DEMOCRATIC REP. OF Chennai Sea 192 0.6393 UNT 3329.0
2016-09-23 85015190 IEC BN MOTOR 80B 4 ,KW0.75 , PHASE - 3 (ELECTRIC MOTOR) VIETNAM, DEMOCRATIC REP. OF Chennai Sea 2 0.0127 UNT 6338.0
2016-09-23 85015290 IEC BN MOTOR 100LA 4 , KW 2.2, PHASE- 3 (ELECTRIC MOTOR) VIETNAM, DEMOCRATIC REP. OF Chennai Sea 162 1.0781 UNT 6654.0
2016-09-23 85015290 IEC BN MOTOR 100LA 4 ,KW2.2 , PHASE - 3 (ELECTRIC MOTOR) VIETNAM, DEMOCRATIC REP. OF Chennai Sea 3 0.0364 UNT 12127.0
2016-09-23 85015290 IEC BN MOTOR 132MA 4 ,KW7.5 , PHASE-3 (ELECTRIC MOTOR) VIETNAM, DEMOCRATIC REP. OF Chennai Sea 4 0.0626 UNT 15653.0
2016-09-23 85015290 IEC BN MOTOR 132MB 4 ,KW9.2 , PHASE - 3 (ELECTRIC MOTOR) VIETNAM, DEMOCRATIC REP. OF Chennai Sea 8 0.1826 UNT 22822.0
2016-09-23 85015290 IEC BN MOTOR 160MR 4 ,KW11 , PHASE-3 (ELECTRIC MOTOR) VIETNAM, DEMOCRATIC REP. OF Chennai Sea 4 0.0848 UNT 21188.0
2016-09-23 85015290 IEC BN MOTOR 80B 2 ,KW1.1 , PHASE-3 (ELECTRIC MOTOR) VIETNAM, DEMOCRATIC REP. OF Chennai Sea 3 0.0116 UNT 3851.0
2016-09-23 85015290 IEC BN MOTOR 80C 4 ,KW1.1 , PHASE-3 (ELECTRIC MOTOR) VIETNAM, DEMOCRATIC REP. OF Chennai Sea 5 0.0188 UNT 3753.0
2016-09-23 85015290 IEC BN MOTOR 90L 2 ,KW2.2 , PHASE-3 (ELECTRIC MOTOR) VIETNAM, DEMOCRATIC REP. OF Chennai Sea 3 0.0282 UNT 9408.0
2016-09-23 85015290 IEC BN MOTOR 90L 6 ,KW1.1 , PHASE-3 (ELECTRIC MOTOR) VIETNAM, DEMOCRATIC REP. OF Chennai Sea 1 0.0059 UNT 5850.0
2016-09-23 85015290 IEC BN MOTOR 90LA 4 , KW 1.5, PHASE- 3 (ELECTRIC MOTOR) VIETNAM, DEMOCRATIC REP. OF Chennai Sea 96 0.6251 UNT 6511.0
2016-09-23 85015290 IEC BN MOTOR 90LA 4 ,KW1.5 , PHASE-3 (ELECTRIC MOTOR) VIETNAM, DEMOCRATIC REP. OF Chennai Sea 60 0.2907 UNT 4845.0
2016-09-23 85015290 IEC BN MOTOR 90LA 4 ,KW1.5 , PHASE - 3 (ELECTRIC MOTOR) VIETNAM, DEMOCRATIC REP. OF Chennai Sea 1 0.0049 UNT 4873.0
2016-09-23 85015290 IEC BN MOTOR 90LB 4 ,KW1.85 , PHASE-3 (ELECTRIC MOTOR) VIETNAM, DEMOCRATIC REP. OF Chennai Sea 10 0.0551 UNT 5511.0
2016-09-23 85015290 IEC BN MOTOR 90S 4 , KW 1.1, PHASE- 3 (ELECTRIC MOTOR) VIETNAM, DEMOCRATIC REP. OF Chennai Sea 48 0.4118 UNT 8580.0
2016-09-23 85015290 IEC BN MOTOR 90S 4 ,KW1.1 , PHASE-3 (ELECTRIC MOTOR) VIETNAM, DEMOCRATIC REP. OF Chennai Sea 80 0.3329 UNT 4160.0
2016-09-26 85015290 X_BN 100LB 6, KW3 , PHASE -3 - (ELECTRIC MOTOR) VIETNAM, DEMOCRATIC REP. OF Chennai Sea 120 1.689 UNT 14074.0
2016-09-28 85015290 IEC BN MOTOR 100LB 4 ,KW3 ,PHASE -3 - (ELECTRIC MOTOR) VIETNAM, DEMOCRATIC REP. OF Chennai Sea 100 1.6461 UNT 16460.0
2016-09-30 85015290 IEC BN MOTOR 100LB 4 ,KW3 ,PHASE 3 - (ELECTRIC MOTOR) VIETNAM, DEMOCRATIC REP. OF Chennai Sea 244 4.0231 UNT 16488.0
2016-10-04 85015190 "M" COMPACT MOTOR 05A 6 ,KW0.10 ,PHASE 3 -(ELECTRIC MOTOR) VIETNAM, DEMOCRATIC REP. OF Chennai Sea 5 0.0144 UNT 2882.0
2016-10-04 85015190 "M" COMPACT MOTOR 1SD 4 ,KW0.37 ,PHASE 3 -(ELECTRIC MOTOR) VIETNAM, DEMOCRATIC REP. OF Chennai Sea 2 0.0123 UNT 6128.0
2016-10-04 85015190 IEC BN MOTOR 27C4 , KW0.09 , PHASE 3 - (ELECTRIC MOTOR) VIETNAM, DEMOCRATIC REP. OF Chennai Sea 4 0.009 UNT 2259.0
2016-10-04 85015190 IEC BN MOTOR 44C4 , PHASE 3 - (ELECTRIC MOTOR) VIETNAM, DEMOCRATIC REP. OF Chennai Sea 13 0.0277 UNT 2129.0
2016-10-04 85015190 IEC BN MOTOR 63A 4 ,KW0.12, PHASE-3 (ELECTRIC MOTOR) VIETNAM, DEMOCRATIC REP. OF Chennai Sea 1 0.0057 UNT 5696.0
2016-10-04 85015190 IEC BN MOTOR 63B 4 , KW0.18 , PHASE 3 - (ELECTRIC MOTOR) VIETNAM, DEMOCRATIC REP. OF Chennai Sea 11 0.0574 UNT 5213.0
2016-10-04 85015190 IEC BN MOTOR 63B 4 , KW0.21 , PHASE 3 - (ELECTRIC MOTOR) VIETNAM, DEMOCRATIC REP. OF Chennai Sea 2 0.0046 UNT 2312.0
2016-10-04 85015190 IEC BN MOTOR 63C 4 , KW0.25 , PHASE 3 - (ELECTRIC MOTOR) VIETNAM, DEMOCRATIC REP. OF Chennai Sea 31 0.0755 UNT 2434.0
2016-10-04 85015190 IEC BN MOTOR 71B 2 , KW0.55 , PHASE 3 - (ELECTRIC MOTOR) VIETNAM, DEMOCRATIC REP. OF Chennai Sea 5 0.0151 UNT 3018.0
2016-10-04 85015190 IEC BN MOTOR 71B 4 ,KW0.37, PHASE-3 (ELECTRIC MOTOR) VIETNAM, DEMOCRATIC REP. OF Chennai Sea 254 0.8332 UNT 3280.0
2016-10-04 85015190 IEC BN MOTOR 71C 6 , KW0.37 , PHASE 3 - (ELECTRIC MOTOR) VIETNAM, DEMOCRATIC REP. OF Chennai Sea 1 0.0034 UNT 3408.0
2016-10-04 85015190 IEC BN MOTOR 80A 2/8 ,KW0.55/0.13 ,PHASE 3 -(ELECTRIC MOTOR) VIETNAM, DEMOCRATIC REP. OF Chennai Sea 1 0.0067 UNT 6699.0
2016-10-04 85015190 IEC BN MOTOR 80A 4 ,KW0.55, PHASE-3 (ELECTRIC MOTOR) VIETNAM, DEMOCRATIC REP. OF Chennai Sea 16 0.1061 UNT 6629.0
2016-10-04 85015190 IEC BN MOTOR 80B 4 , KW0.75 , PHASE 3 - (ELECTRIC MOTOR) VIETNAM, DEMOCRATIC REP. OF Chennai Sea 48 0.1636 UNT 3408.0
2016-10-04 85015190 IEC BN MOTOR 80B 4 ,KW0.75 ,PHASE 3 -(ELECTRIC MOTOR) VIETNAM, DEMOCRATIC REP. OF Chennai Sea 2 0.0129 UNT 6451.0
2016-10-04 85015190 IEC BN MOTOR 80B 4 ,KW0.75, PHASE-3 (ELECTRIC MOTOR) VIETNAM, DEMOCRATIC REP. OF Chennai Sea 33 0.2232 UNT 6764.0
2016-10-04 85015190 IEC BN MOTOR 80B 6 , KW0.55 , PHASE 3 - (ELECTRIC MOTOR) VIETNAM, DEMOCRATIC REP. OF Chennai Sea 5 0.02 UNT 3992.0
2016-10-04 85015290 "M" COMPACT MOTOR 3LB 2 ,KW4 ,PHASE 3 -(ELECTRIC MOTOR) VIETNAM, DEMOCRATIC REP. OF Chennai Sea 1 0.0065 UNT 6517.0
2016-10-04 85015290 HIGH EFFICENCY MOTOR BE 100LA 4 ,KW2.2 , PHASE-3(ELECTRIC MOTOR) VIETNAM, DEMOCRATIC REP. OF Chennai Sea 2 0.0153 UNT 7639.0
2016-10-04 85015290 HIGH EFFICENCY MOTOR BE 112M 4 ,KW4 , PHASE-3(ELECTRIC MOTOR) VIETNAM, DEMOCRATIC REP. OF Chennai Sea 4 0.0435 UNT 10877.0
2016-10-04 85015290 HIGH EFFICENCY MOTOR BE 132MB 4 ,KW9.2, PHASE-3(ELECTRIC MOTOR) VIETNAM, DEMOCRATIC REP. OF Chennai Sea 1 0.0219 UNT 21854.0
2016-10-04 85015290 HIGH EFFICENCY MOTOR BE 132S 4 ,KW5.5, PHASE-3(ELECTRIC MOTOR) VIETNAM, DEMOCRATIC REP. OF Chennai Sea 2 0.0289 UNT 14470.0
2016-10-04 85015290 IEC BN MOTOR 100LA 4 ,KW2.2 ,PHASE 3 -(ELECTRIC MOTOR) VIETNAM, DEMOCRATIC REP. OF Chennai Sea 5 0.06 UNT 11991.0
2016-10-04 85015290 IEC BN MOTOR 100LA 4 ,KW2.2, PHASE-3 (ELECTRIC MOTOR) VIETNAM, DEMOCRATIC REP. OF Chennai Sea 18 0.1911 UNT 10616.0

3 Phase Electrical Motor Trade Data - Indian Ports

S. No Product Product Code Quantity Value (INR in Million) Unit Origin Port Destination Port
W8F5203004D0597 IEC BN MOTOR 100LB6-KW1.85, PHASE-3(ELECTRIC MOTOR) 85015290 300 5.466 UNT VIETNAM, DEMOCRATIC REP. OF Chennai Sea
W8F66020025005 IEC BN MOTOR 132MA4-KW7.5, PHASE-3(ELECTRIC MOTOR) 85015290 12 0.5636 UNT VIETNAM, DEMOCRATIC REP. OF Chennai Sea
"M"COMPACT MOTOR 05A6 ,KW0.10, PHASE-3 (ELECTRIC MOTOR) 85015190 1 0.0035 UNT VIETNAM, DEMOCRATIC REP. OF Chennai Air Cargo
"M"COMPACT MOTOR 1LA4,KW0.55, PHASE-3 (ELECTRIC MOTOR) 85015190 8 0.0299 UNT VIETNAM, DEMOCRATIC REP. OF Chennai Air Cargo
830510500 IEC BN MOTOR 63A 2 KW0.18 ,PHASE-3(ELECTRIC MOTOR) 85015190 62 0.1417 UNT VIETNAM, DEMOCRATIC REP. OF Chennai Sea
830610156 IEC BN MOTOR 63B2 KW0.25 ,PHASE-3(ELECTRIC MOTOR) 85015190 54 0.1312 UNT VIETNAM, DEMOCRATIC REP. OF Chennai Sea
840521946 IEC BN MOTOR 63B4 KW0.18 ,PHASE-3(ELECTRIC MOTOR) 85015190 46 0.239 UNT VIETNAM, DEMOCRATIC REP. OF Chennai Sea
8F09020009 IEC BN MOTOR 63A4 KW0.12 ,PHASE-3(ELECTRIC MOTOR) 85015190 10 0.0508 UNT VIETNAM, DEMOCRATIC REP. OF Chennai Sea
8F100100A5 IEC BN MOTOR 63B2 ,KW0.25, PHASE-3(ELECTRIC MOTOR) 85015190 13 0.0968 UNT VIETNAM, DEMOCRATIC REP. OF Chennai Air Cargo
8F15020007 IEC BN MOTOR 71A4 ,KW0.25, PHASE-3(ELECTRIC MOTOR) 85015190 54 0.3286 UNT VIETNAM, DEMOCRATIC REP. OF Chennai Sea
8F16020196 IEC BN MOTOR 71B4 ,KW0.37, PHASE-3(ELECTRIC MOTOR) 85015190 27 0.1805 UNT VIETNAM, DEMOCRATIC REP. OF Chennai Sea
8F31020016 IEC BN MOTOR 80B4 ,KW0.75, PHASE-3(ELECTRIC MOTOR) 85015190 24 0.1651 UNT VIETNAM, DEMOCRATIC REP. OF Chennai Sea
8L04020110 "M"COMPACT MOTOR 05C4 ,KW0.25, PHASE-3(ELECTRIC MOTOR) 85015190 1 0.0059 UNT VIETNAM, DEMOCRATIC REP. OF Chennai Sea
8U03030001 HIGH EFFICENCY MOTOR 80B4 ,KW0.75,PHASE-3(ELECTRIC MOTOR) 85015190 42 0.1785 UNT VIETNAM, DEMOCRATIC REP. OF Chennai Sea
830G2310M "M" COMPACT MOTOR 2SB4 ,KW1.1,PHASE-3(ELECTRIC MOTOR) 85015290 3 0.0121 UNT VIETNAM, DEMOCRATIC REP. OF Chennai Sea
831120106 IEC BN MOTOR 90LA 4 ,KW1.5, PHASE-3(ELECTRIC MOTOR) 85015290 80 0.3929 UNT VIETNAM, DEMOCRATIC REP. OF Chennai Sea
8F40020190 IEC BN MOTOR 90S4 ,KW1.1, PHASE-3(ELECTRIC MOTOR) 85015290 6 0.0517 UNT VIETNAM, DEMOCRATIC REP. OF Chennai Sea
8F44020019 IEC BN MOTOR 90LA4 ,KW1.5,PHASE-3(ELECTRIC MOTOR) 85015290 12 0.1111 UNT VIETNAM, DEMOCRATIC REP. OF Chennai Sea
8F51020018 IEC BN MOTOR 100LA4 ,KW2.2, PHASE-3(ELECTRIC MOTOR) 85015290 12 0.1276 UNT VIETNAM, DEMOCRATIC REP. OF Chennai Sea
8F51020156 IEC BN MOTOR 100LA4 ,KW2.2, PHASE-3(ELECTRIC MOTOR) 85015290 6 0.0732 UNT VIETNAM, DEMOCRATIC REP. OF Chennai Sea
8F52020042 IEC BN MOTOR 100LB4 ,KW3, PHASE-3(ELECTRIC MOTOR) 85015290 6 0.0736 UNT VIETNAM, DEMOCRATIC REP. OF Chennai Sea
8F79020118 IEC BN MOTOR 160MR4 ,KW11,PHASE-3(ELECTRIC MOTOR) 85015290 16 0.5754 UNT VIETNAM, DEMOCRATIC REP. OF Chennai Sea
8F79020118 IEC BN MOTOR 160MR4 ,KW11, PHASE-3(ELECTRIC MOTOR) 85015290 13 0.4675 UNT VIETNAM, DEMOCRATIC REP. OF Chennai Sea
8H43030015 IEC BN MOTOR 90L6 ,KW1.1, PHASE-3(ELECTRIC MOTOR) 85015290 1 0.0094 UNT VIETNAM, DEMOCRATIC REP. OF Chennai Sea
JD00001799 X_BN BN100LB6-KW1.85, PHASE-3 (ELECTRIC MOTOR) 85015290 15 0.2123 UNT VIETNAM, DEMOCRATIC REP. OF Chennai Sea

Looking to import 3 Phase Electrical Motor?

With end to end global trade solutions from Connect2India, we enable Indian SMEs to start and grow their business globally

Yearwise analysis of 3 Phase Electrical Motor import to India

Below is the detailed list of 3 Phase Electrical Motor import to India with quantity, volume, price, origin port and the destination port.

Increase your 3 Phase Electrical Motor imports with steady access to working capital with our import financing solutions at Connect2India.

Looking to import 3 Phase Electrical Motor from genuine and best quality Indian suppliers?

Graphical representation for 3 Phase Electrical Motor import

3 Phase Electrical Motor - Recent import data

How connect2india can help you import 3 Phase Electrical Motor?

Connect2India can help you find 3 Phase Electrical Motor suppliers / exporters in more than 100 countries, arrange import orders for 3 Phase Electrical Motor, find the most effective market to import 3 Phase Electrical Motor, help you out with procedures and formalities required to import 3 Phase Electrical Motor in India and also assist you in 3 Phase Electrical Motor shipment and logistics. Our trade experts are always available for any help regarding the import of 3 Phase Electrical Motor and its products. If you want more information, please get in touch with our trade experts here

People Also Ask

Whom can I contact for more information on 3 Phase Electrical Motor import to India?

You can submit your requirement on Connect2India and our representative will get in touch with you with more information about 3 Phase Electrical Motor. Alternatively, you can call us @ +91-7876759999 or email us to info@connect2India.com

Which is the most popular Indian port for 3 Phase Electrical Motor import?

Chennai Sea is the most popular port for 3 Phase Electrical Motor import to India

What are the top three import shipments of 3 Phase Electrical Motor traded to India?

Following are the top three import shipments of 3 Phase Electrical Motor traded to India :

  • X_BN 132MA 6 , KW4, PHASE-3 - (ELECTRIC MOTOR)
  • IEC BN MOTOR 100LB 4 ,KW3 , PHASE-3 - (ELECTRIC MOTOR)
  • ELECTRIC MOTOR, HKDS0202 5HP 440 VOLTS 50HZ 3 PHASE